sensor_id;sensor_type;location;lat;lon;timestamp;P1;durP1;ratioP1;P2;durP2;ratioP2
53313;SDS011;39202;51.468;7.146;2023-05-10T00:03:15;1.25;;;1.20;;
53313;SDS011;39202;51.468;7.146;2023-05-10T00:08:18;1.30;;;1.30;;
53313;SDS011;39202;51.468;7.146;2023-05-10T00:13:20;1.40;;;1.40;;
53313;SDS011;39202;51.468;7.146;2023-05-10T00:18:22;1.10;;;1.10;;
53313;SDS011;39202;51.468;7.146;2023-05-10T00:23:26;1.13;;;1.13;;
53313;SDS011;39202;51.468;7.146;2023-05-10T00:28:28;1.20;;;1.20;;
53313;SDS011;39202;51.468;7.146;2023-05-10T00:33:30;1.10;;;1.10;;
53313;SDS011;39202;51.468;7.146;2023-05-10T00:38:33;1.10;;;1.10;;
53313;SDS011;39202;51.468;7.146;2023-05-10T00:43:35;1.15;;;1.15;;
53313;SDS011;39202;51.468;7.146;2023-05-10T00:48:37;1.02;;;1.02;;
53313;SDS011;39202;51.468;7.146;2023-05-10T00:53:40;1.60;;;1.20;;
53313;SDS011;39202;51.468;7.146;2023-05-10T00:58:42;1.50;;;1.40;;
53313;SDS011;39202;51.468;7.146;2023-05-10T01:03:44;1.00;;;1.00;;
53313;SDS011;39202;51.468;7.146;2023-05-10T01:08:48;1.10;;;1.10;;
53313;SDS011;39202;51.468;7.146;2023-05-10T01:13:51;1.25;;;1.25;;
53313;SDS011;39202;51.468;7.146;2023-05-10T01:18:56;1.00;;;1.00;;
53313;SDS011;39202;51.468;7.146;2023-05-10T01:29:45;0.90;;;0.90;;
53313;SDS011;39202;51.468;7.146;2023-05-10T01:35:00;0.90;;;0.90;;
53313;SDS011;39202;51.468;7.146;2023-05-10T01:40:08;0.98;;;0.98;;
53313;SDS011;39202;51.468;7.146;2023-05-10T01:45:18;1.00;;;1.00;;
53313;SDS011;39202;51.468;7.146;2023-05-10T01:50:27;1.10;;;1.10;;
53313;SDS011;39202;51.468;7.146;2023-05-10T01:55:32;0.90;;;0.90;;
53313;SDS011;39202;51.468;7.146;2023-05-10T02:00:36;1.00;;;1.00;;
53313;SDS011;39202;51.468;7.146;2023-05-10T02:05:42;0.77;;;0.77;;
53313;SDS011;39202;51.468;7.146;2023-05-10T02:10:46;1.00;;;1.00;;
53313;SDS011;39202;51.468;7.146;2023-05-10T02:15:51;0.80;;;0.80;;
53313;SDS011;39202;51.468;7.146;2023-05-10T02:20:57;0.77;;;0.77;;
53313;SDS011;39202;51.468;7.146;2023-05-10T02:26:00;1.00;;;1.00;;
53313;SDS011;39202;51.468;7.146;2023-05-10T02:31:03;0.93;;;0.93;;
53313;SDS011;39202;51.468;7.146;2023-05-10T02:36:08;1.05;;;1.05;;
53313;SDS011;39202;51.468;7.146;2023-05-10T02:41:11;0.73;;;0.73;;
53313;SDS011;39202;51.468;7.146;2023-05-10T02:46:13;0.95;;;0.90;;
53313;SDS011;39202;51.468;7.146;2023-05-10T02:51:17;0.80;;;0.80;;
53313;SDS011;39202;51.468;7.146;2023-05-10T02:56:24;0.80;;;0.80;;
53313;SDS011;39202;51.468;7.146;2023-05-10T03:01:29;0.90;;;0.90;;
53313;SDS011;39202;51.468;7.146;2023-05-10T03:06:32;0.90;;;0.90;;
53313;SDS011;39202;51.468;7.146;2023-05-10T03:11:38;1.00;;;1.00;;
53313;SDS011;39202;51.468;7.146;2023-05-10T03:16:52;0.73;;;0.73;;
53313;SDS011;39202;51.468;7.146;2023-05-10T03:22:03;0.80;;;0.80;;
53313;SDS011;39202;51.468;7.146;2023-05-10T03:27:09;0.90;;;0.90;;
53313;SDS011;39202;51.468;7.146;2023-05-10T03:32:12;0.80;;;0.80;;
53313;SDS011;39202;51.468;7.146;2023-05-10T03:37:15;0.70;;;0.70;;
53313;SDS011;39202;51.468;7.146;2023-05-10T03:42:17;0.80;;;0.80;;
53313;SDS011;39202;51.468;7.146;2023-05-10T03:47:19;0.80;;;0.80;;
53313;SDS011;39202;51.468;7.146;2023-05-10T03:52:22;0.70;;;0.70;;
53313;SDS011;39202;51.468;7.146;2023-05-10T03:57:24;0.77;;;0.77;;
53313;SDS011;39202;51.468;7.146;2023-05-10T04:02:25;1.23;;;0.90;;
53313;SDS011;39202;51.468;7.146;2023-05-10T04:07:29;0.80;;;0.80;;
53313;SDS011;39202;51.468;7.146;2023-05-10T04:12:30;0.70;;;0.70;;
53313;SDS011;39202;51.468;7.146;2023-05-10T04:17:32;0.75;;;0.75;;
53313;SDS011;39202;51.468;7.146;2023-05-10T04:22:35;0.70;;;0.70;;
53313;SDS011;39202;51.468;7.146;2023-05-10T04:27:38;0.80;;;0.80;;
53313;SDS011;39202;51.468;7.146;2023-05-10T04:32:39;0.70;;;0.70;;
53313;SDS011;39202;51.468;7.146;2023-05-10T04:37:42;0.80;;;0.80;;
53313;SDS011;39202;51.468;7.146;2023-05-10T04:42:44;0.70;;;0.70;;
53313;SDS011;39202;51.468;7.146;2023-05-10T04:47:46;0.70;;;0.70;;
53313;SDS011;39202;51.468;7.146;2023-05-10T04:52:49;0.80;;;0.80;;
53313;SDS011;39202;51.468;7.146;2023-05-10T04:57:51;0.90;;;0.90;;
53313;SDS011;39202;51.468;7.146;2023-05-10T05:02:52;0.80;;;0.80;;
53313;SDS011;39202;51.468;7.146;2023-05-10T05:07:55;0.80;;;0.80;;
53313;SDS011;39202;51.468;7.146;2023-05-10T05:12:57;0.80;;;0.80;;
53313;SDS011;39202;51.468;7.146;2023-05-10T05:17:59;0.80;;;0.80;;
53313;SDS011;39202;51.468;7.146;2023-05-10T05:23:02;0.80;;;0.80;;
53313;SDS011;39202;51.468;7.146;2023-05-10T05:28:04;0.90;;;0.90;;
53313;SDS011;39202;51.468;7.146;2023-05-10T05:33:05;0.88;;;0.88;;
53313;SDS011;39202;51.468;7.146;2023-05-10T05:38:08;1.02;;;1.02;;
53313;SDS011;39202;51.468;7.146;2023-05-10T05:43:10;1.05;;;1.05;;
53313;SDS011;39202;51.468;7.146;2023-05-10T05:48:12;1.10;;;1.10;;
53313;SDS011;39202;51.468;7.146;2023-05-10T05:53:15;1.13;;;1.10;;
53313;SDS011;39202;51.468;7.146;2023-05-10T05:58:16;1.55;;;1.45;;
53313;SDS011;39202;51.468;7.146;2023-05-10T06:03:18;2.80;;;1.40;;
53313;SDS011;39202;51.468;7.146;2023-05-10T06:08:22;1.42;;;1.33;;
53313;SDS011;39202;51.468;7.146;2023-05-10T06:13:23;3.10;;;1.50;;
53313;SDS011;39202;51.468;7.146;2023-05-10T06:18:28;3.78;;;1.83;;
53313;SDS011;39202;51.468;7.146;2023-05-10T06:23:31;3.47;;;1.55;;
53313;SDS011;39202;51.468;7.146;2023-05-10T06:28:33;4.93;;;1.98;;
53313;SDS011;39202;51.468;7.146;2023-05-10T06:33:35;4.82;;;2.03;;
53313;SDS011;39202;51.468;7.146;2023-05-10T06:38:38;4.28;;;2.30;;
53313;SDS011;39202;51.468;7.146;2023-05-10T06:43:39;4.97;;;2.75;;
53313;SDS011;39202;51.468;7.146;2023-05-10T06:48:43;7.25;;;3.45;;
53313;SDS011;39202;51.468;7.146;2023-05-10T06:53:46;5.07;;;3.92;;
53313;SDS011;39202;51.468;7.146;2023-05-10T06:58:48;7.95;;;4.32;;
53313;SDS011;39202;51.468;7.146;2023-05-10T07:03:50;10.35;;;4.53;;
53313;SDS011;39202;51.468;7.146;2023-05-10T07:08:53;6.13;;;4.53;;
53313;SDS011;39202;51.468;7.146;2023-05-10T07:13:55;7.50;;;4.68;;
53313;SDS011;39202;51.468;7.146;2023-05-10T07:18:57;6.72;;;5.60;;
53313;SDS011;39202;51.468;7.146;2023-05-10T07:24:00;4.95;;;4.22;;
53313;SDS011;39202;51.468;7.146;2023-05-10T07:29:02;5.22;;;4.15;;
53313;SDS011;39202;51.468;7.146;2023-05-10T07:34:03;6.95;;;4.07;;
53313;SDS011;39202;51.468;7.146;2023-05-10T07:39:06;5.60;;;3.72;;
53313;SDS011;39202;51.468;7.146;2023-05-10T07:44:08;4.20;;;3.55;;
53313;SDS011;39202;51.468;7.146;2023-05-10T07:49:10;4.60;;;3.58;;
53313;SDS011;39202;51.468;7.146;2023-05-10T07:54:13;3.55;;;3.17;;
53313;SDS011;39202;51.468;7.146;2023-05-10T07:59:15;3.67;;;3.22;;
53313;SDS011;39202;51.468;7.146;2023-05-10T08:04:17;4.57;;;3.50;;
53313;SDS011;39202;51.468;7.146;2023-05-10T08:09:20;4.47;;;3.17;;
53313;SDS011;39202;51.468;7.146;2023-05-10T08:14:23;4.40;;;3.70;;
53313;SDS011;39202;51.468;7.146;2023-05-10T08:19:25;4.15;;;3.20;;
53313;SDS011;39202;51.468;7.146;2023-05-10T08:24:28;4.18;;;3.20;;
53313;SDS011;39202;51.468;7.146;2023-05-10T08:29:30;3.13;;;2.83;;
53313;SDS011;39202;51.468;7.146;2023-05-10T08:34:32;3.05;;;2.80;;
53313;SDS011;39202;51.468;7.146;2023-05-10T08:39:35;3.70;;;3.35;;
53313;SDS011;39202;51.468;7.146;2023-05-10T08:49:41;3.40;;;3.10;;
53313;SDS011;39202;51.468;7.146;2023-05-10T08:54:45;3.80;;;3.50;;
53313;SDS011;39202;51.468;7.146;2023-05-10T08:59:48;4.03;;;3.38;;
53313;SDS011;39202;51.468;7.146;2023-05-10T09:04:49;4.38;;;3.67;;
53313;SDS011;39202;51.468;7.146;2023-05-10T09:09:52;4.05;;;3.30;;
53313;SDS011;39202;51.468;7.146;2023-05-10T09:14:55;5.47;;;3.70;;
53313;SDS011;39202;51.468;7.146;2023-05-10T09:19:59;3.65;;;3.20;;
53313;SDS011;39202;51.468;7.146;2023-05-10T09:25:06;3.85;;;3.50;;
53313;SDS011;39202;51.468;7.146;2023-05-10T09:30:09;4.70;;;3.35;;
53313;SDS011;39202;51.468;7.146;2023-05-10T09:35:11;3.92;;;3.28;;
53313;SDS011;39202;51.468;7.146;2023-05-10T09:40:17;3.63;;;3.33;;
53313;SDS011;39202;51.468;7.146;2023-05-10T09:45:19;6.05;;;3.47;;
53313;SDS011;39202;51.468;7.146;2023-05-10T09:50:22;3.45;;;3.15;;
53313;SDS011;39202;51.468;7.146;2023-05-10T09:55:26;3.05;;;2.85;;
53313;SDS011;39202;51.468;7.146;2023-05-10T10:00:39;3.35;;;3.10;;
53313;SDS011;39202;51.468;7.146;2023-05-10T10:05:42;4.20;;;2.88;;
53313;SDS011;39202;51.468;7.146;2023-05-10T10:10:47;3.58;;;3.28;;
53313;SDS011;39202;51.468;7.146;2023-05-10T10:15:49;3.70;;;3.40;;
53313;SDS011;39202;51.468;7.146;2023-05-10T10:20:51;3.72;;;3.28;;
53313;SDS011;39202;51.468;7.146;2023-05-10T10:25:56;3.60;;;3.30;;
53313;SDS011;39202;51.468;7.146;2023-05-10T10:30:59;3.20;;;2.92;;
53313;SDS011;39202;51.468;7.146;2023-05-10T10:36:11;3.35;;;3.00;;
53313;SDS011;39202;51.468;7.146;2023-05-10T10:41:27;3.42;;;3.17;;
53313;SDS011;39202;51.468;7.146;2023-05-10T10:46:31;3.88;;;3.47;;
53313;SDS011;39202;51.468;7.146;2023-05-10T10:51:36;3.33;;;3.03;;
53313;SDS011;39202;51.468;7.146;2023-05-10T10:56:39;3.45;;;3.15;;
53313;SDS011;39202;51.468;7.146;2023-05-10T11:01:41;3.85;;;3.28;;
53313;SDS011;39202;51.468;7.146;2023-05-10T11:06:44;3.30;;;3.10;;
53313;SDS011;39202;51.468;7.146;2023-05-10T11:11:51;3.50;;;3.20;;
53313;SDS011;39202;51.468;7.146;2023-05-10T11:16:55;3.63;;;3.28;;
53313;SDS011;39202;51.468;7.146;2023-05-10T11:22:11;3.60;;;3.30;;
53313;SDS011;39202;51.468;7.146;2023-05-10T11:27:15;3.90;;;3.25;;
53313;SDS011;39202;51.468;7.146;2023-05-10T11:32:17;3.35;;;3.05;;
53313;SDS011;39202;51.468;7.146;2023-05-10T11:37:20;3.75;;;3.45;;
53313;SDS011;39202;51.468;7.146;2023-05-10T11:42:23;3.40;;;3.10;;
53313;SDS011;39202;51.468;7.146;2023-05-10T11:47:25;3.25;;;3.05;;
53313;SDS011;39202;51.468;7.146;2023-05-10T11:52:26;3.30;;;3.10;;
53313;SDS011;39202;51.468;7.146;2023-05-10T11:57:30;3.88;;;3.40;;
53313;SDS011;39202;51.468;7.146;2023-05-10T12:02:32;3.20;;;2.95;;
53313;SDS011;39202;51.468;7.146;2023-05-10T12:07:34;3.65;;;3.35;;
53313;SDS011;39202;51.468;7.146;2023-05-10T12:17:44;3.72;;;3.42;;
53313;SDS011;39202;51.468;7.146;2023-05-10T12:22:46;3.47;;;3.28;;
53313;SDS011;39202;51.468;7.146;2023-05-10T12:27:53;3.47;;;2.92;;
53313;SDS011;39202;51.468;7.146;2023-05-10T12:32:59;2.90;;;2.70;;
53313;SDS011;39202;51.468;7.146;2023-05-10T12:43:28;3.60;;;2.90;;
53313;SDS011;39202;51.468;7.146;2023-05-10T12:48:30;3.10;;;2.90;;
53313;SDS011;39202;51.468;7.146;2023-05-10T12:53:33;3.47;;;3.17;;
53313;SDS011;39202;51.468;7.146;2023-05-10T12:58:37;3.17;;;2.97;;
53313;SDS011;39202;51.468;7.146;2023-05-10T13:03:39;3.35;;;3.10;;
53313;SDS011;39202;51.468;7.146;2023-05-10T13:08:43;3.53;;;3.22;;
53313;SDS011;39202;51.468;7.146;2023-05-10T13:13:46;3.13;;;2.90;;
53313;SDS011;39202;51.468;7.146;2023-05-10T13:18:47;3.38;;;3.10;;
53313;SDS011;39202;51.468;7.146;2023-05-10T13:23:49;2.95;;;2.75;;
53313;SDS011;39202;51.468;7.146;2023-05-10T13:28:52;2.78;;;2.58;;
53313;SDS011;39202;51.468;7.146;2023-05-10T13:33:55;3.30;;;3.00;;
53313;SDS011;39202;51.468;7.146;2023-05-10T13:38:57;2.90;;;2.70;;
53313;SDS011;39202;51.468;7.146;2023-05-10T13:44:02;2.95;;;2.70;;
53313;SDS011;39202;51.468;7.146;2023-05-10T13:49:04;3.15;;;2.70;;
53313;SDS011;39202;51.468;7.146;2023-05-10T13:54:06;3.05;;;2.55;;
53313;SDS011;39202;51.468;7.146;2023-05-10T13:59:09;2.95;;;2.63;;
53313;SDS011;39202;51.468;7.146;2023-05-10T14:04:11;2.70;;;2.50;;
53313;SDS011;39202;51.468;7.146;2023-05-10T14:09:12;2.60;;;2.40;;
53313;SDS011;39202;51.468;7.146;2023-05-10T14:14:16;2.30;;;2.20;;
53313;SDS011;39202;51.468;7.146;2023-05-10T14:19:17;2.40;;;2.28;;
53313;SDS011;39202;51.468;7.146;2023-05-10T14:24:19;2.35;;;2.22;;
53313;SDS011;39202;51.468;7.146;2023-05-10T14:29:22;2.63;;;2.25;;
53313;SDS011;39202;51.468;7.146;2023-05-10T14:34:24;2.55;;;2.35;;
53313;SDS011;39202;51.468;7.146;2023-05-10T14:39:26;2.58;;;2.20;;
53313;SDS011;39202;51.468;7.146;2023-05-10T14:44:31;2.42;;;2.20;;
53313;SDS011;39202;51.468;7.146;2023-05-10T14:49:32;2.47;;;2.17;;
53313;SDS011;39202;51.468;7.146;2023-05-10T14:54:34;2.95;;;2.20;;
53313;SDS011;39202;51.468;7.146;2023-05-10T14:59:37;2.45;;;2.25;;
53313;SDS011;39202;51.468;7.146;2023-05-10T15:04:39;2.15;;;2.05;;
53313;SDS011;39202;51.468;7.146;2023-05-10T15:09:41;2.95;;;2.13;;
53313;SDS011;39202;51.468;7.146;2023-05-10T15:14:44;2.05;;;1.95;;
53313;SDS011;39202;51.468;7.146;2023-05-10T15:19:46;2.25;;;2.08;;
53313;SDS011;39202;51.468;7.146;2023-05-10T15:24:49;1.85;;;1.75;;
53313;SDS011;39202;51.468;7.146;2023-05-10T15:29:52;2.33;;;2.13;;
53313;SDS011;39202;51.468;7.146;2023-05-10T15:34:54;2.67;;;2.50;;
53313;SDS011;39202;51.468;7.146;2023-05-10T15:39:56;2.38;;;2.17;;
53313;SDS011;39202;51.468;7.146;2023-05-10T15:45:05;2.67;;;2.47;;
53313;SDS011;39202;51.468;7.146;2023-05-10T15:50:07;2.78;;;2.55;;
53313;SDS011;39202;51.468;7.146;2023-05-10T15:55:10;2.80;;;2.60;;
53313;SDS011;39202;51.468;7.146;2023-05-10T16:00:15;3.03;;;2.63;;
53313;SDS011;39202;51.468;7.146;2023-05-10T16:05:18;2.72;;;2.53;;
53313;SDS011;39202;51.468;7.146;2023-05-10T16:10:20;2.95;;;2.70;;
53313;SDS011;39202;51.468;7.146;2023-05-10T16:15:23;2.85;;;2.65;;
53313;SDS011;39202;51.468;7.146;2023-05-10T16:20:25;3.33;;;2.92;;
53313;SDS011;39202;51.468;7.146;2023-05-10T16:25:28;2.60;;;2.40;;
53313;SDS011;39202;51.468;7.146;2023-05-10T16:30:32;2.95;;;2.38;;
53313;SDS011;39202;51.468;7.146;2023-05-10T16:35:33;2.17;;;2.05;;
53313;SDS011;39202;51.468;7.146;2023-05-10T16:40:35;2.40;;;2.20;;
53313;SDS011;39202;51.468;7.146;2023-05-10T16:45:38;2.20;;;2.00;;
53313;SDS011;39202;51.468;7.146;2023-05-10T16:50:42;2.30;;;2.10;;
53313;SDS011;39202;51.468;7.146;2023-05-10T16:55:43;2.20;;;2.10;;
53313;SDS011;39202;51.468;7.146;2023-05-10T17:00:46;2.00;;;1.90;;
53313;SDS011;39202;51.468;7.146;2023-05-10T17:05:48;1.90;;;1.80;;
53313;SDS011;39202;51.468;7.146;2023-05-10T17:10:50;1.88;;;1.77;;
53313;SDS011;39202;51.468;7.146;2023-05-10T17:15:53;2.08;;;1.98;;
53313;SDS011;39202;51.468;7.146;2023-05-10T17:20:55;2.00;;;1.90;;
53313;SDS011;39202;51.468;7.146;2023-05-10T17:25:57;2.30;;;2.03;;
53313;SDS011;39202;51.468;7.146;2023-05-10T17:31:00;2.13;;;2.03;;
53313;SDS011;39202;51.468;7.146;2023-05-10T17:36:02;2.30;;;2.20;;
53313;SDS011;39202;51.468;7.146;2023-05-10T17:41:04;2.42;;;1.83;;
53313;SDS011;39202;51.468;7.146;2023-05-10T17:46:07;2.00;;;1.90;;
53313;SDS011;39202;51.468;7.146;2023-05-10T17:51:09;1.90;;;1.80;;
53313;SDS011;39202;51.468;7.146;2023-05-10T17:56:12;2.00;;;1.90;;
53313;SDS011;39202;51.468;7.146;2023-05-10T18:01:15;1.83;;;1.73;;
53313;SDS011;39202;51.468;7.146;2023-05-10T18:06:16;1.88;;;1.77;;
53313;SDS011;39202;51.468;7.146;2023-05-10T18:11:18;1.98;;;1.80;;
53313;SDS011;39202;51.468;7.146;2023-05-10T18:16:22;2.03;;;1.90;;
53313;SDS011;39202;51.468;7.146;2023-05-10T18:21:24;1.90;;;1.80;;
53313;SDS011;39202;51.468;7.146;2023-05-10T18:26:26;1.75;;;1.67;;
53313;SDS011;39202;51.468;7.146;2023-05-10T18:31:29;1.80;;;1.70;;
53313;SDS011;39202;51.468;7.146;2023-05-10T18:36:30;1.90;;;1.80;;
53313;SDS011;39202;51.468;7.146;2023-05-10T18:41:32;2.05;;;1.95;;
53313;SDS011;39202;51.468;7.146;2023-05-10T18:46:36;1.80;;;1.70;;
53313;SDS011;39202;51.468;7.146;2023-05-10T18:51:38;2.00;;;1.80;;
53313;SDS011;39202;51.468;7.146;2023-05-10T18:56:40;1.80;;;1.70;;
53313;SDS011;39202;51.468;7.146;2023-05-10T19:01:46;1.83;;;1.73;;
53313;SDS011;39202;51.468;7.146;2023-05-10T19:06:47;2.00;;;1.90;;
53313;SDS011;39202;51.468;7.146;2023-05-10T19:11:49;1.90;;;1.80;;
53313;SDS011;39202;51.468;7.146;2023-05-10T19:16:53;2.05;;;1.85;;
53313;SDS011;39202;51.468;7.146;2023-05-10T19:21:55;1.90;;;1.80;;
53313;SDS011;39202;51.468;7.146;2023-05-10T19:26:56;1.52;;;1.52;;
53313;SDS011;39202;51.468;7.146;2023-05-10T19:31:59;1.77;;;1.67;;
53313;SDS011;39202;51.468;7.146;2023-05-10T19:37:01;1.73;;;1.63;;
53313;SDS011;39202;51.468;7.146;2023-05-10T19:42:03;1.70;;;1.60;;
53313;SDS011;39202;51.468;7.146;2023-05-10T19:47:07;1.55;;;1.50;;
53313;SDS011;39202;51.468;7.146;2023-05-10T19:52:09;1.80;;;1.70;;
53313;SDS011;39202;51.468;7.146;2023-05-10T19:57:11;1.85;;;1.75;;
53313;SDS011;39202;51.468;7.146;2023-05-10T20:02:14;1.58;;;1.52;;
53313;SDS011;39202;51.468;7.146;2023-05-10T20:07:16;1.80;;;1.70;;
53313;SDS011;39202;51.468;7.146;2023-05-10T20:12:17;1.35;;;1.35;;
53313;SDS011;39202;51.468;7.146;2023-05-10T20:17:21;1.58;;;1.48;;
53313;SDS011;39202;51.468;7.146;2023-05-10T20:22:23;1.88;;;1.77;;
53313;SDS011;39202;51.468;7.146;2023-05-10T20:27:25;1.70;;;1.60;;
53313;SDS011;39202;51.468;7.146;2023-05-10T20:32:29;1.63;;;1.52;;
53313;SDS011;39202;51.468;7.146;2023-05-10T20:37:31;1.77;;;1.67;;
53313;SDS011;39202;51.468;7.146;2023-05-10T20:42:32;1.45;;;1.45;;
53313;SDS011;39202;51.468;7.146;2023-05-10T20:52:38;1.42;;;1.42;;
53313;SDS011;39202;51.468;7.146;2023-05-10T20:57:40;1.80;;;1.70;;
53313;SDS011;39202;51.468;7.146;2023-05-10T21:02:43;1.52;;;1.50;;
53313;SDS011;39202;51.468;7.146;2023-05-10T21:07:47;1.63;;;1.52;;
53313;SDS011;39202;51.468;7.146;2023-05-10T21:12:49;1.40;;;1.40;;
53313;SDS011;39202;51.468;7.146;2023-05-10T21:17:51;1.85;;;1.75;;
53313;SDS011;39202;51.468;7.146;2023-05-10T21:22:55;1.70;;;1.60;;
53313;SDS011;39202;51.468;7.146;2023-05-10T21:27:57;1.65;;;1.55;;
53313;SDS011;39202;51.468;7.146;2023-05-10T21:32:59;1.40;;;1.40;;
53313;SDS011;39202;51.468;7.146;2023-05-10T21:38:03;1.40;;;1.40;;
53313;SDS011;39202;51.468;7.146;2023-05-10T21:43:05;1.50;;;1.40;;
53313;SDS011;39202;51.468;7.146;2023-05-10T21:48:07;1.42;;;1.42;;
53313;SDS011;39202;51.468;7.146;2023-05-10T21:53:10;1.65;;;1.55;;
53313;SDS011;39202;51.468;7.146;2023-05-10T21:58:12;1.65;;;1.50;;
53313;SDS011;39202;51.468;7.146;2023-05-10T22:03:14;1.17;;;1.17;;
53313;SDS011;39202;51.468;7.146;2023-05-10T22:08:17;1.55;;;1.45;;
53313;SDS011;39202;51.468;7.146;2023-05-10T22:13:18;1.42;;;1.42;;
53313;SDS011;39202;51.468;7.146;2023-05-10T22:18:20;1.45;;;1.40;;
53313;SDS011;39202;51.468;7.146;2023-05-10T22:23:23;1.40;;;1.40;;
53313;SDS011;39202;51.468;7.146;2023-05-10T22:28:25;1.45;;;1.35;;
53313;SDS011;39202;51.468;7.146;2023-05-10T22:33:27;1.40;;;1.40;;
53313;SDS011;39202;51.468;7.146;2023-05-10T22:38:30;1.30;;;1.30;;
53313;SDS011;39202;51.468;7.146;2023-05-10T22:43:31;1.55;;;1.45;;
53313;SDS011;39202;51.468;7.146;2023-05-10T22:48:33;1.30;;;1.30;;
53313;SDS011;39202;51.468;7.146;2023-05-10T22:53:37;1.20;;;1.20;;
53313;SDS011;39202;51.468;7.146;2023-05-10T22:58:39;1.35;;;1.35;;
53313;SDS011;39202;51.468;7.146;2023-05-10T23:03:40;1.23;;;1.20;;
53313;SDS011;39202;51.468;7.146;2023-05-10T23:08:44;1.30;;;1.30;;
53313;SDS011;39202;51.468;7.146;2023-05-10T23:13:45;1.20;;;1.20;;
53313;SDS011;39202;51.468;7.146;2023-05-10T23:18:47;1.35;;;1.35;;
53313;SDS011;39202;51.468;7.146;2023-05-10T23:23:50;1.25;;;1.20;;
53313;SDS011;39202;51.468;7.146;2023-05-10T23:28:52;1.92;;;1.30;;
53313;SDS011;39202;51.468;7.146;2023-05-10T23:33:54;1.20;;;1.20;;
53313;SDS011;39202;51.468;7.146;2023-05-10T23:38:57;1.40;;;1.40;;
53313;SDS011;39202;51.468;7.146;2023-05-10T23:43:59;1.17;;;1.17;;
53313;SDS011;39202;51.468;7.146;2023-05-10T23:49:01;1.50;;;1.40;;
53313;SDS011;39202;51.468;7.146;2023-05-10T23:54:04;1.30;;;1.30;;
53313;SDS011;39202;51.468;7.146;2023-05-10T23:59:06;1.20;;;1.20;;
